Tuesday, July 25, 2017, 2:37 AM EDT

KTHV, York Airport

Location: Spring Grove, PA, United States Lat: 39.917
Local Time: 2:37 AM EDT ( 6:37 GMT) Lon: -76.883
Time Zone: US/Eastern Elev: 478 ft

Show me the last for .
Show Decoded

2017-07-24 20:53 METAR KTHV 250053Z AUTO 00000KT 9SM CLR 22/22 A2985 RMK AO2 LTG DSNT SE AND S
                 SLP107 T02170217 =
2017-07-24 19:53 METAR KTHV 242353Z AUTO 00000KT 10SM SCT080 SCT090 23/22 A2984 RMK AO2 LTG DSNT
                 E AND SE RAE2256 TSE00 SLP102 P0000 60054 T02330222 10300 20211 51013 =
2017-07-24 19:13 METAR KTHV 242313Z AUTO 00000KT 10SM FEW049 FEW070 22/22 A2984 RMK AO2 LTG DSNT
                 E AND SE RAE2256 TSE00 P0000 T02220217 =
2017-07-24 19:06 METAR KTHV 242306Z AUTO 00000KT 10SM VCTS FEW014 FEW048 SCT070 23/22 A2983 RMK
                 AO2 LTG DSNT NE-SE RAE2256 TSE00 P0000 T02280217 =
2017-07-24 18:53 METAR KTHV 242253Z AUTO 34004KT 7SM -TSRA SCT020 BKN047 BKN060 23/22 A2984 RMK
                 AO2 PK WND 32029/2235 LTG DSNT NE AND E RAB31 TSB34 SLP102 P0054 T02280222 =
2017-07-24 18:50 METAR KTHV 242250Z AUTO 36006KT 1 1/2SM -TSRA BR SCT020 BKN047 OVC100 22/22
                 A2984 RMK AO2 PK WND 32029/2235 LTG DSNT NE RAB31 TSB34 P0054 =
2017-07-24 18:36 METAR KTHV 242236Z AUTO 32021G29KT 3/4SM +TSRA BR SCT024 BKN049 OVC060 22/21
                 A2985 RMK AO2 PK WND 32029/2235 RAB31 TSB34 PRESRR P0028 T02170206 =
2017-07-24 18:34 METAR KTHV 242234Z AUTO 32017G22KT 1 3/4SM +TSRA BR FEW036 BKN049 OVC085 22/20
                 A2985 RMK AO2 RAB31 TSB34 P0012 T02220200 =
2017-07-24 17:53 METAR KTHV 242153Z AUTO VRB05KT 10SM BKN110 28/21 A2980 RMK AO2 RAB00E09 SLP090
                 P0000 T02830206 =
2017-07-24 16:53 METAR KTHV 242053Z AUTO 24005KT 10SM OVC110 28/20 A2980 RMK AO2 LTG DSNT NW
                 SLP089 T02830200 58007 =
2017-07-24 15:53 METAR KTHV 241953Z AUTO 23005KT 10SM SCT060 29/19 A2981 RMK AO2 SLP093 T02890194
                 =
2017-07-24 14:53 METAR KTHV 241853Z AUTO 00000KT 10SM SCT039 BKN049 BKN065 29/21 A2981 RMK AO2
                 SLP094 T02890211 =
2017-07-24 13:53 METAR KTHV 241753Z AUTO 21003KT 10SM FEW038 BKN048 BKN055 28/21 A2982 RMK AO2
                 SLP096 T02780206 10283 20217 50000 =
2017-07-24 12:53 METAR KTHV 241653Z AUTO VRB04KT 10SM FEW032 SCT042 28/21 A2983 RMK AO2 SLP098
                 T02780211 =
2017-07-24 11:53 METAR KTHV 241553Z AUTO 31007KT 10SM SCT029 BKN047 27/21 A2983 RMK AO2 SLP098
                 T02670211 =
2017-07-24 10:53 METAR KTHV 241453Z AUTO 31004KT 10SM CLR 26/21 A2982 RMK AO2 SLP096 T02560206
                 51006 =
2017-07-24 09:53 METAR KTHV 241353Z AUTO 30005KT 10SM CLR 25/21 A2982 RMK AO2 SLP094 T02500206 =
2017-07-24 08:53 METAR KTHV 241253Z AUTO 32007KT 10SM CLR 23/21 A2981 RMK AO2 SLP093 T02280206 =
2017-07-24 07:53 METAR KTHV 241153Z AUTO 00000KT 10SM FEW031 22/21 A2980 RMK AO2 SLP091 60007
                 70156 T02170206 10217 20206 53026 =
2017-07-24 07:07 METAR KTHV 241107Z AUTO 33008G15KT 10SM FEW023 BKN030 OVC036 22/21 A2979 RMK AO2
                 T02170211 =
2017-07-24 06:53 METAR KTHV 241053Z AUTO 31011KT 10SM SCT021 BKN028 22/22 A2977 RMK AO2 SLP081
                 T02170217 =
2017-07-24 05:53 METAR KTHV 240953Z AUTO 25004KT 10SM FEW011 SCT065 BKN120 21/21 A2973 RMK AO2
                 RAB24E46 SLP066 P0002 T02110211 =
2017-07-24 05:06 METAR KTHV 240906Z AUTO 30003KT 10SM SCT015 21/21 A2973 RMK AO2 T02060206 =
2017-07-24 04:53 METAR KTHV 240853Z AUTO 00000KT 10SM BKN016 21/21 A2972 RMK AO2 SLP065 60005
                 T02110211 56017 =
2017-07-24 04:44 METAR KTHV 240844Z AUTO 00000KT 10SM BKN016 21/21 A2973 RMK AO2 T02110211 =
2017-07-24 03:53 METAR KTHV 240753Z AUTO 00000KT 10SM SCT060 21/21 A2974 RMK AO2 SLP067 T02110211
                 =
2017-07-24 02:53 METAR KTHV 240653Z AUTO 00000KT 10SM FEW100 21/21 A2975 RMK AO2 RAE28 SLP070
                 P0005 T02110206 =

Support USWX by starting your Amazon purchase here.